Time;durP1;ratioP1;P1;durP2;ratioP2;P2;SDS_P1;SDS_P2;PMS_P1;PMS_P2;Temp;Humidity;BMP_temperature;BMP_pressure;BME280_temperature;BME280_humidity;BME280_pressure;Samples;Min_cycle;Max_cycle;Signal;HPM_P1;HPM_P2
2022/02/05 00:02:16;;;;;;;3.13;2.00;;;22.10;35.70;;;;;;5030920;28;20560;-74
2022/02/05 00:04:43;;;;;;;3.15;1.65;;;22.10;35.70;;;;;;5031015;28;20482;-74
2022/02/05 00:07:10;;;;;;;2.05;1.45;;;22.10;35.70;;;;;;5031274;28;20395;-72
2022/02/05 00:41:49;;;;;;;1.87;1.27;;;22.00;35.50;;;;;;5031238;28;20398;-70
2022/02/05 00:44:14;;;;;;;1.90;1.30;;;22.00;35.60;;;;;;5035191;28;20406;-71
2022/02/05 00:46:42;;;;;;;2.43;1.60;;;22.00;35.60;;;;;;5034992;28;20398;-70
2022/02/05 00:49:07;;;;;;;2.40;1.53;;;22.00;35.50;;;;;;5034769;28;20445;-70
2022/02/05 00:51:45;;;;;;;2.15;1.30;;;22.00;35.50;;;;;;5035039;28;20476;-72
2022/02/05 00:54:15;;;;;;;2.20;1.60;;;22.00;35.50;;;;;;5035017;28;20747;-71
2022/02/05 00:57:07;;;;;;;2.05;1.30;;;22.00;35.50;;;;;;5033706;28;20759;-71
2022/02/05 00:59:33;;;;;;;1.88;1.40;;;22.00;35.50;;;;;;5033587;28;20448;-71
2022/02/05 01:01:58;;;;;;;2.20;1.50;;;22.00;35.40;;;;;;5034083;28;20415;-71
2022/02/05 01:04:24;;;;;;;2.10;1.50;;;22.00;35.50;;;;;;5033681;28;20558;-71
2022/02/05 01:06:50;;;;;;;2.00;1.45;;;22.00;35.30;;;;;;5033262;28;20398;-70
2022/02/05 01:09:25;;;;;;;2.28;1.30;;;22.00;35.30;;;;;;5032845;28;20399;-70
2022/02/05 01:11:51;;;;;;;2.10;1.60;;;22.00;35.30;;;;;;5033371;28;20398;-70
2022/02/05 01:14:21;;;;;;;2.35;1.50;;;22.00;35.30;;;;;;5033377;28;20399;-70
2022/02/05 01:16:54;;;;;;;2.00;1.40;;;22.00;35.30;;;;;;5032561;28;20406;-70
2022/02/05 01:20:23;;;;;;;2.60;1.40;;;22.00;35.20;;;;;;5032280;28;20477;-71
2022/02/05 01:22:09;;;;;;;2.20;1.40;;;22.00;35.20;;;;;;5030278;28;20430;-70
2022/02/05 01:24:36;;;;;;;2.22;1.40;;;22.00;35.10;;;;;;5034470;28;20389;-70
2022/02/05 01:27:08;;;;;;;1.90;1.30;;;22.00;35.10;;;;;;5034390;28;20813;-74
2022/02/05 01:32:19;;;;;;;1.52;1.20;;;22.00;35.20;;;;;;5034471;28;20410;-70
2022/02/05 01:35:05;;;;;;;2.08;1.20;;;22.00;35.30;;;;;;5032892;28;20759;-71
2022/02/05 01:51:07;;;;;;;2.20;1.40;;;21.90;35.20;;;;;;5034201;28;20430;-70
2022/02/05 02:09:42;;;;;;;2.67;1.35;;;21.80;35.20;;;;;;5033270;28;20395;-70
2022/02/05 02:12:15;;;;;;;1.60;1.13;;;21.80;35.20;;;;;;5032431;28;20399;-70
2022/02/05 02:23:17;;;;;;;1.50;1.10;;;21.80;35.00;;;;;;5033426;28;20476;-74
2022/02/05 02:28:19;;;;;;;1.35;1.00;;;21.80;35.10;;;;;;5033378;28;20485;-71
2022/02/05 02:31:22;;;;;;;1.80;1.10;;;21.80;35.10;;;;;;5033325;28;20448;-71
2022/02/05 02:33:43;;;;;;;1.60;1.10;;;21.80;35.10;;;;;;5031181;28;20400;-70
2022/02/05 02:36:16;;;;;;;1.73;1.10;;;21.80;35.10;;;;;;5031660;28;20406;-70
2022/02/05 02:38:48;;;;;;;1.50;1.00;;;21.70;35.00;;;;;;5031825;28;20399;-70
2022/02/05 02:41:24;;;;;;;1.40;0.90;;;21.80;35.10;;;;;;5032579;28;20406;-70
2022/02/05 02:43:49;;;;;;;2.08;1.00;;;21.70;35.10;;;;;;5033077;28;20476;-73
2022/02/05 02:46:15;;;;;;;1.50;1.10;;;21.70;35.00;;;;;;5031460;28;20458;-71
2022/02/05 02:48:45;;;;;;;1.33;0.93;;;21.80;35.10;;;;;;5032786;28;20395;-71
2022/02/05 02:59:01;;;;;;;1.40;0.93;;;21.70;35.00;;;;;;5032699;28;20398;-69
2022/02/05 03:01:30;;;;;;;1.40;0.90;;;21.70;35.00;;;;;;5030767;28;20515;-69
2022/02/05 03:03:55;;;;;;;1.40;0.80;;;21.70;35.10;;;;;;5030998;28;20411;-71
2022/02/05 03:06:21;;;;;;;1.30;0.70;;;21.70;35.00;;;;;;5031424;28;20459;-70
2022/02/05 03:08:50;;;;;;;1.17;0.80;;;21.70;35.00;;;;;;5032387;28;20407;-69
2022/02/05 03:11:19;;;;;;;1.48;0.80;;;21.80;35.00;;;;;;5032092;28;20395;-69
2022/02/05 03:13:48;;;;;;;1.80;0.90;;;21.80;34.90;;;;;;5032337;28;20810;-70
2022/02/05 03:16:21;;;;;;;1.23;0.70;;;21.80;35.00;;;;;;5032125;28;20415;-73
2022/02/05 03:19:08;;;;;;;1.52;0.85;;;21.80;34.90;;;;;;5032020;28;20403;-74
2022/02/05 03:21:33;;;;;;;1.40;0.80;;;21.80;34.80;;;;;;5031623;28;20522;-76
2022/02/05 03:23:58;;;;;;;1.20;0.70;;;21.80;34.80;;;;;;5032249;28;20821;-72
2022/02/05 03:26:24;;;;;;;1.17;0.67;;;21.70;34.90;;;;;;5031043;28;20395;-74
2022/02/05 03:28:49;;;;;;;1.20;0.80;;;21.80;34.80;;;;;;5032174;28;20445;-72
2022/02/05 03:31:15;;;;;;;1.10;0.70;;;21.70;34.70;;;;;;5031995;28;20453;-69
2022/02/05 03:33:41;;;;;;;1.23;0.80;;;21.70;34.90;;;;;;5032228;28;20391;-70
2022/02/05 03:36:07;;;;;;;0.90;0.70;;;21.70;34.90;;;;;;5032129;28;20490;-74
2022/02/05 03:38:32;;;;;;;0.95;0.70;;;21.70;34.80;;;;;;5032056;28;20387;-70
2022/02/05 03:40:58;;;;;;;1.30;0.80;;;21.70;34.90;;;;;;5031919;28;20510;-70
2022/02/05 03:43:23;;;;;;;1.30;0.75;;;21.70;34.80;;;;;;5031594;28;20395;-72
2022/02/05 03:45:49;;;;;;;1.10;0.70;;;21.70;34.80;;;;;;5031770;28;20407;-72
2022/02/05 03:48:15;;;;;;;0.90;0.60;;;21.70;34.80;;;;;;5030898;28;20887;-73
2022/02/05 03:50:40;;;;;;;1.13;0.80;;;21.70;34.70;;;;;;5030784;28;20406;-74
2022/02/05 03:53:07;;;;;;;1.40;0.77;;;21.70;34.80;;;;;;5031977;28;20419;-73
2022/02/05 03:55:33;;;;;;;0.80;0.60;;;21.70;34.80;;;;;;5031563;28;20454;-70
2022/02/05 03:57:59;;;;;;;1.10;0.60;;;21.70;34.70;;;;;;5031980;28;20823;-71
2022/02/05 04:00:24;;;;;;;0.83;0.60;;;21.70;34.80;;;;;;5031758;28;20441;-74
2022/02/05 04:02:50;;;;;;;1.10;0.60;;;21.60;34.70;;;;;;5030398;28;20497;-70
2022/02/05 04:05:16;;;;;;;1.08;0.60;;;21.70;34.80;;;;;;5031439;28;20386;-69
2022/02/05 04:07:45;;;;;;;1.70;0.80;;;21.60;34.80;;;;;;5031527;28;20394;-70
2022/02/05 04:10:15;;;;;;;1.00;0.60;;;21.60;34.80;;;;;;5031675;28;20384;-71
2022/02/05 04:18:12;;;;;;;0.80;0.60;;;21.70;34.80;;;;;;5031095;28;20386;-73
2022/02/05 04:20:39;;;;;;;1.20;0.60;;;21.70;34.80;;;;;;5031538;28;20391;-73
2022/02/05 04:23:05;;;;;;;0.90;0.60;;;21.70;34.70;;;;;;5031439;28;20406;-72
2022/02/05 04:25:30;;;;;;;0.83;0.43;;;21.70;34.60;;;;;;5031100;28;20793;-72
2022/02/05 04:27:56;;;;;;;0.88;0.50;;;21.70;34.60;;;;;;5031369;28;20395;-71
2022/02/05 04:30:22;;;;;;;0.70;0.50;;;21.60;34.60;;;;;;5031557;28;20398;-70
2022/02/05 04:32:49;;;;;;;0.60;0.40;;;21.70;34.70;;;;;;5031441;28;20387;-75
2022/02/05 04:35:15;;;;;;;0.85;0.50;;;21.60;34.60;;;;;;5031242;28;20398;-69
2022/02/05 04:37:41;;;;;;;1.52;0.50;;;21.60;34.70;;;;;;5031159;28;20482;-70
2022/02/05 04:42:56;;;;;;;0.70;0.50;;;21.60;34.60;;;;;;5031395;28;20545;-70
2022/02/05 04:50:54;;;;;;;0.63;0.40;;;21.50;34.60;;;;;;5031308;28;20383;-71
2022/02/05 05:03:53;;;;;;;0.85;0.47;;;21.60;34.50;;;;;;5030693;28;20410;-74
2022/02/05 05:19:58;;;;;;;0.70;0.45;;;21.60;34.40;;;;;;5031034;28;20479;-72
2022/02/05 05:22:23;;;;;;;0.70;0.40;;;21.60;34.40;;;;;;5030768;28;20415;-75
2022/02/05 05:24:49;;;;;;;0.43;0.30;;;21.60;34.40;;;;;;5030893;28;20461;-71
2022/02/05 05:27:14;;;;;;;0.70;0.40;;;21.60;34.50;;;;;;5029824;28;20395;-71
2022/02/05 05:29:40;;;;;;;0.50;0.40;;;21.60;34.40;;;;;;5031094;28;20391;-70
2022/02/05 05:32:06;;;;;;;0.53;0.30;;;21.60;34.40;;;;;;5033322;28;20891;-72
2022/02/05 05:34:32;;;;;;;0.57;0.40;;;21.50;34.30;;;;;;5033207;28;20410;-70
2022/02/05 05:37:00;;;;;;;0.50;0.30;;;21.50;34.40;;;;;;5034335;28;20391;-71
2022/02/05 05:39:26;;;;;;;0.50;0.38;;;21.50;34.60;;;;;;5033883;28;20403;-72
2022/02/05 05:41:51;;;;;;;0.60;0.40;;;21.50;34.50;;;;;;5034208;28;20422;-75
2022/02/05 05:44:46;;;;;;;0.77;0.40;;;21.50;34.60;;;;;;5033185;28;20476;-72
2022/02/05 05:47:17;;;;;;;0.45;0.30;;;21.50;34.40;;;;;;5033964;28;20807;-75
2022/02/05 05:50:10;;;;;;;0.47;0.30;;;21.50;34.50;;;;;;5034043;28;20838;-75
2022/02/05 05:52:30;;;;;;;0.35;0.20;;;21.50;34.40;;;;;;5033728;28;20427;-72
2022/02/05 05:54:55;;;;;;;0.50;0.30;;;21.50;34.40;;;;;;5034024;28;20438;-70
2022/02/05 05:57:22;;;;;;;0.43;0.30;;;21.50;34.30;;;;;;5033777;28;20391;-70
2022/02/05 05:59:48;;;;;;;0.88;0.30;;;21.50;34.60;;;;;;5033660;28;20887;-70
2022/02/05 06:02:14;;;;;;;0.40;0.30;;;21.50;34.30;;;;;;5033935;28;20523;-70
2022/02/05 06:04:40;;;;;;;0.70;0.40;;;21.40;34.40;;;;;;5033822;28;20383;-71
2022/02/05 06:07:06;;;;;;;0.60;0.40;;;21.50;34.40;;;;;;5033852;28;20399;-71
2022/02/05 06:09:35;;;;;;;0.75;0.38;;;21.50;34.30;;;;;;5032196;28;20398;-75
2022/02/05 06:12:00;;;;;;;0.73;0.40;;;21.50;34.30;;;;;;5033926;28;20391;-71
2022/02/05 06:14:28;;;;;;;0.40;0.30;;;21.50;34.30;;;;;;5032449;28;20391;-69
2022/02/05 06:17:01;;;;;;;0.60;0.30;;;21.40;34.40;;;;;;5033520;28;20759;-70
2022/02/05 06:19:27;;;;;;;0.30;0.30;;;21.50;34.30;;;;;;5033112;28;20768;-71
2022/02/05 06:21:52;;;;;;;0.50;0.30;;;21.50;34.20;;;;;;5033206;28;20405;-70
2022/02/05 06:24:18;;;;;;;0.45;0.30;;;21.50;34.20;;;;;;5033432;28;20482;-70
2022/02/05 06:26:43;;;;;;;0.43;0.33;;;21.50;34.20;;;;;;5033327;28;20515;-71
2022/02/05 06:29:09;;;;;;;0.20;0.20;;;21.50;34.30;;;;;;5033393;28;20771;-71
2022/02/05 06:31:35;;;;;;;0.60;0.40;;;21.40;34.20;;;;;;5032914;28;20747;-74
2022/02/05 06:34:02;;;;;;;0.80;0.40;;;21.50;34.30;;;;;;5032140;28;20391;-71
2022/02/05 06:36:28;;;;;;;0.30;0.30;;;21.50;34.40;;;;;;5033236;28;20394;-73
2022/02/05 06:38:54;;;;;;;1.00;0.30;;;21.60;34.10;;;;;;5033130;28;20796;-72
2022/02/05 06:41:19;;;;;;;1.45;0.60;;;21.50;33.80;;;;;;5032826;28;20438;-71
2022/02/05 06:43:45;;;;;;;1.90;0.90;;;21.50;34.70;;;;;;5033066;28;20426;-75
2022/02/05 06:46:11;;;;;;;1.25;0.60;;;21.40;34.90;;;;;;5033002;28;20490;-71
2022/02/05 06:48:36;;;;;;;1.40;0.60;;;21.40;34.50;;;;;;5033059;28;20770;-75
2022/02/05 06:51:02;;;;;;;1.17;0.60;;;21.40;34.50;;;;;;5033072;28;20851;-74
2022/02/05 06:53:27;;;;;;;2.92;0.63;;;21.40;34.50;;;;;;5031404;28;20494;-73
2022/02/05 06:55:53;;;;;;;1.40;0.70;;;21.30;34.50;;;;;;5032917;28;20478;-75
2022/02/05 06:58:19;;;;;;;1.55;0.60;;;21.30;34.60;;;;;;5032849;28;20405;-76
2022/02/05 07:00:44;;;;;;;2.30;0.80;;;21.30;34.80;;;;;;5031629;28;20485;-74
2022/02/05 07:03:16;;;;;;;2.17;1.10;;;21.30;35.00;;;;;;5032708;28;20458;-76
2022/02/05 07:05:41;;;;;;;2.45;0.98;;;21.30;34.90;;;;;;5032544;28;20395;-76
2022/02/05 07:08:07;;;;;;;1.60;0.90;;;21.30;35.00;;;;;;5032759;28;20751;-72
2022/02/05 07:10:33;;;;;;;2.17;0.90;;;21.30;35.20;;;;;;5032594;28;20383;-74
2022/02/05 07:15:46;;;;;;;2.10;1.00;;;21.40;35.40;;;;;;5032004;28;20441;-72
2022/02/05 07:20:53;;;;;;;2.30;0.95;;;21.40;36.00;;;;;;5032716;28;20395;-75
2022/02/05 07:31:15;;;;;;;2.55;1.20;;;21.50;36.90;;;;;;5032145;28;20437;-74
2022/02/05 07:33:41;;;;;;;3.25;1.10;;;21.60;37.00;;;;;;5031606;28;20399;-73
2022/02/05 07:36:07;;;;;;;3.25;1.30;;;21.60;36.40;;;;;;5032222;28;20419;-75
2022/02/05 07:38:33;;;;;;;3.13;1.30;;;21.60;36.90;;;;;;5031089;28;20402;-74
2022/02/05 07:40:59;;;;;;;2.47;1.20;;;21.60;35.50;;;;;;5032216;28;20395;-75
2022/02/05 07:43:28;;;;;;;2.50;1.17;;;21.60;36.40;;;;;;5030735;28;20918;-75
2022/02/05 07:45:54;;;;;;;2.72;1.13;;;21.60;36.40;;;;;;5030426;28;20407;-75
2022/02/05 07:48:20;;;;;;;4.65;1.05;;;21.60;36.50;;;;;;5031858;28;20403;-75
2022/02/05 07:50:46;;;;;;;2.70;1.20;;;21.60;36.50;;;;;;5030683;28;20829;-74
2022/02/05 07:53:12;;;;;;;1.98;1.10;;;21.60;36.40;;;;;;5029947;28;20450;-70
2022/02/05 07:55:37;;;;;;;2.33;1.20;;;21.70;37.50;;;;;;5029934;28;20414;-75
2022/02/05 07:58:03;;;;;;;3.80;1.40;;;21.70;36.20;;;;;;5030730;28;20921;-75
2022/02/05 08:00:28;;;;;;;3.60;1.33;;;21.60;37.20;;;;;;5030502;28;20396;-74
2022/02/05 08:02:57;;;;;;;2.67;1.40;;;21.70;37.30;;;;;;5030218;28;20551;-74
2022/02/05 08:05:23;;;;;;;3.83;1.40;;;21.80;37.80;;;;;;5031858;28;20426;-72
2022/02/05 08:07:50;;;;;;;3.50;1.60;;;21.80;37.80;;;;;;5029950;28;20439;-73
2022/02/05 08:10:16;;;;;;;3.15;1.38;;;21.90;37.90;;;;;;5030382;28;20879;-73
2022/02/05 08:12:49;;;;;;;3.00;1.60;;;21.90;37.70;;;;;;5030569;28;20410;-74
2022/02/05 08:15:18;;;;;;;3.08;1.60;;;21.90;37.90;;;;;;5031665;28;20857;-71
2022/02/05 08:17:43;;;;;;;2.70;1.40;;;22.00;37.60;;;;;;5029731;28;20422;-70
2022/02/05 08:20:10;;;;;;;3.50;1.40;;;22.00;37.60;;;;;;5030083;28;20387;-69
2022/02/05 08:22:35;;;;;;;5.47;1.45;;;21.90;37.40;;;;;;5030048;28;20415;-69
2022/02/05 08:25:01;;;;;;;2.53;1.40;;;21.90;37.10;;;;;;5031330;28;20391;-69
2022/02/05 08:27:27;;;;;;;2.67;1.20;;;21.90;36.30;;;;;;5029971;28;20387;-70
2022/02/05 08:30:03;;;;;;;2.10;1.20;;;21.90;35.00;;;;;;5029865;28;20486;-69
2022/02/05 08:32:29;;;;;;;3.22;1.20;;;21.90;34.70;;;;;;5030194;28;20387;-69
2022/02/05 08:35:00;;;;;;;4.20;1.10;;;21.90;35.50;;;;;;5030076;28;20895;-69
2022/02/05 08:37:27;;;;;;;2.30;1.20;;;22.00;35.00;;;;;;5015872;28;20395;-67
2022/02/05 08:39:52;;;;;;;3.33;1.30;;;22.00;35.00;;;;;;5011130;28;20515;-70
2022/02/05 08:42:19;;;;;;;2.33;1.10;;;22.00;34.80;;;;;;5028330;28;20427;-69
2022/02/05 08:44:45;;;;;;;2.65;1.20;;;22.10;34.60;;;;;;5004924;28;20389;-70
2022/02/05 08:47:11;;;;;;;1.92;1.10;;;22.10;34.60;;;;;;5012958;28;20410;-68
2022/02/05 08:49:36;;;;;;;1.70;1.00;;;22.20;34.50;;;;;;5010444;28;20393;-68
2022/02/05 08:52:06;;;;;;;1.80;0.90;;;22.20;34.30;;;;;;5016517;28;20395;-70
2022/02/05 08:54:32;;;;;;;1.77;0.90;;;22.30;34.10;;;;;;5006606;28;20515;-69
2022/02/05 08:56:58;;;;;;;1.58;0.80;;;22.30;34.00;;;;;;5007910;28;20428;-69
2022/02/05 08:59:26;;;;;;;2.22;1.00;;;22.30;34.00;;;;;;5011422;28;20411;-70
2022/02/05 09:01:59;;;;;;;2.37;1.20;;;22.20;33.90;;;;;;5014363;28;20509;-69
2022/02/05 09:06:59;;;;;;;2.67;1.15;;;22.20;34.10;;;;;;5010280;28;20481;-68
2022/02/05 09:14:38;;;;;;;3.10;1.50;;;22.30;33.80;;;;;;5015489;28;20864;-69
2022/02/05 09:17:05;;;;;;;3.67;1.40;;;22.30;33.70;;;;;;5011762;28;20447;-71
2022/02/05 09:19:33;;;;;;;3.13;1.30;;;22.40;33.60;;;;;;5017210;28;20393;-71
2022/02/05 09:21:59;;;;;;;3.35;1.33;;;22.30;33.70;;;;;;5011488;28;20511;-75
2022/02/05 09:24:25;;;;;;;2.93;1.43;;;22.40;34.10;;;;;;5014695;28;20396;-75
2022/02/05 09:26:58;;;;;;;2.57;1.40;;;22.40;34.30;;;;;;5013762;28;20430;-76
2022/02/05 09:29:25;;;;;;;3.38;1.40;;;22.50;34.30;;;;;;5015584;28;20497;-72
2022/02/05 09:31:51;;;;;;;3.05;1.27;;;22.60;34.50;;;;;;5012850;28;20802;-76
2022/02/05 09:34:18;;;;;;;3.20;1.40;;;22.70;34.40;;;;;;5015281;28;20402;-75
2022/02/05 09:36:44;;;;;;;2.40;1.35;;;22.70;34.30;;;;;;5031658;28;20418;-74
2022/02/05 09:39:11;;;;;;;2.60;1.30;;;22.80;34.30;;;;;;5018021;28;20389;-75
2022/02/05 09:41:39;;;;;;;3.05;1.23;;;22.90;34.30;;;;;;5012909;28;20451;-73
2022/02/05 09:44:05;;;;;;;2.03;1.05;;;23.00;34.20;;;;;;5016080;28;20877;-75
2022/02/05 09:46:31;;;;;;;1.83;1.10;;;23.00;34.10;;;;;;5011567;28;20413;-76
2022/02/05 09:48:58;;;;;;;2.77;1.20;;;23.10;33.90;;;;;;5015117;28;21463;-76
2022/02/05 09:51:31;;;;;;;2.90;1.27;;;23.10;33.80;;;;;;5017740;28;20423;-74
2022/02/05 09:53:57;;;;;;;1.67;1.10;;;23.20;34.00;;;;;;5014745;28;21239;-74
2022/02/05 09:56:25;;;;;;;1.77;1.00;;;23.30;34.10;;;;;;5012164;28;20396;-76
2022/02/05 09:58:52;;;;;;;2.40;1.10;;;23.40;34.10;;;;;;5014773;28;20441;-71
2022/02/05 10:01:39;;;;;;;1.80;0.90;;;23.50;33.70;;;;;;5014004;28;20478;-70
2022/02/05 10:04:07;;;;;;;2.10;1.30;;;23.60;33.70;;;;;;5016248;28;20736;-75
2022/02/05 10:06:39;;;;;;;1.70;0.95;;;23.70;33.80;;;;;;5014439;28;20399;-71
2022/02/05 10:09:13;;;;;;;1.80;1.00;;;23.80;33.80;;;;;;5013245;28;20859;-73
2022/02/05 10:11:59;;;;;;;2.08;1.00;;;23.80;33.70;;;;;;5014202;28;20484;-72
2022/02/05 10:14:27;;;;;;;3.45;1.08;;;23.80;33.40;;;;;;5015632;28;20388;-75
2022/02/05 10:17:01;;;;;;;2.90;1.00;;;23.80;33.60;;;;;;5012862;28;20895;-76
2022/02/05 10:19:48;;;;;;;2.60;1.10;;;23.90;33.70;;;;;;5015213;28;20444;-76
2022/02/05 10:22:14;;;;;;;1.75;1.00;;;23.90;33.70;;;;;;5015645;28;21714;-73
2022/02/05 10:24:56;;;;;;;1.83;1.00;;;24.00;33.60;;;;;;5013527;28;20484;-77
2022/02/05 10:27:32;;;;;;;2.20;1.02;;;24.00;33.30;;;;;;5016190;28;20391;-75
2022/02/05 10:30:12;;;;;;;1.80;1.00;;;24.10;33.70;;;;;;5011822;28;20408;-75
2022/02/05 10:32:43;;;;;;;1.67;0.90;;;24.20;33.40;;;;;;5013206;28;20389;-77
2022/02/05 10:35:32;;;;;;;1.40;0.80;;;24.20;33.50;;;;;;5016135;28;20390;-77
2022/02/05 10:40:41;;;;;;;1.83;1.00;;;24.40;33.40;;;;;;5014835;28;20747;-77
2022/02/05 10:43:08;;;;;;;2.53;0.95;;;24.50;33.70;;;;;;5016196;28;20419;-77
2022/02/05 10:45:41;;;;;;;1.95;0.80;;;24.60;33.10;;;;;;5013037;28;20403;-76
2022/02/05 10:48:08;;;;;;;1.50;0.90;;;24.60;33.20;;;;;;5015446;28;20396;-76
2022/02/05 10:50:35;;;;;;;1.83;0.85;;;24.70;33.00;;;;;;5013762;28;20995;-73
2022/02/05 10:53:22;;;;;;;1.60;0.80;;;24.80;32.90;;;;;;5015198;28;20465;-72
2022/02/05 10:58:46;;;;;;;2.20;1.00;;;25.00;32.80;;;;;;5014870;28;20391;-69
2022/02/05 11:07:02;;;;;;;1.40;0.77;;;25.20;32.40;;;;;;5014485;28;20529;-76
2022/02/05 11:09:28;;;;;;;1.97;0.90;;;25.20;32.60;;;;;;5016300;28;20408;-76
2022/02/05 11:20:01;;;;;;;2.07;1.10;;;25.50;32.30;;;;;;5012614;28;20431;-75
2022/02/05 11:22:33;;;;;;;2.30;1.20;;;25.60;32.30;;;;;;5010676;28;20906;-74
2022/02/05 11:25:01;;;;;;;2.10;1.10;;;25.60;31.60;;;;;;5014384;28;20877;-74
2022/02/05 11:27:27;;;;;;;3.15;1.58;;;25.60;31.60;;;;;;5015006;28;20391;-70
2022/02/05 11:29:53;;;;;;;2.90;1.27;;;25.60;30.90;;;;;;5019973;28;20790;-69
2022/02/05 11:32:35;;;;;;;2.65;1.25;;;25.60;30.70;;;;;;5011394;28;20405;-69
2022/02/05 11:35:09;;;;;;;2.83;1.17;;;25.70;31.30;;;;;;5010730;28;20389;-76
2022/02/05 11:37:57;;;;;;;3.75;1.20;;;25.70;31.30;;;;;;5014243;28;20573;-69
2022/02/05 11:40:46;;;;;;;5.28;2.00;;;25.80;30.80;;;;;;5012573;28;20883;-70
2022/02/05 11:43:14;;;;;;;2.35;1.13;;;25.80;31.20;;;;;;5018766;28;21153;-68
2022/02/05 11:45:40;;;;;;;2.90;1.10;;;25.90;31.20;;;;;;5012303;28;20401;-69
2022/02/05 11:48:43;;;;;;;3.83;1.20;;;26.00;31.00;;;;;;5009474;28;20399;-68
2022/02/05 11:51:10;;;;;;;3.33;1.30;;;26.30;31.30;;;;;;5011314;28;20399;-70
2022/02/05 11:53:58;;;;;;;2.37;0.97;;;26.10;31.40;;;;;;5020788;28;20425;-68
2022/02/05 11:56:54;;;;;;;3.08;1.30;;;26.20;31.90;;;;;;5014592;28;20388;-77
2022/02/05 11:59:26;;;;;;;4.63;1.80;;;26.30;32.00;;;;;;5022657;28;20399;-74
2022/02/05 12:02:16;;;;;;;3.90;1.30;;;26.40;31.60;;;;;;5011839;28;20416;-68
2022/02/05 12:04:42;;;;;;;2.40;1.10;;;26.50;31.70;;;;;;5012783;28;20400;-68
2022/02/05 12:07:10;;;;;;;2.08;1.10;;;26.50;31.80;;;;;;5011170;28;20393;-70
2022/02/05 12:09:43;;;;;;;4.03;1.23;;;26.50;31.70;;;;;;5013056;28;20875;-68
2022/02/05 12:12:25;;;;;;;3.05;1.20;;;26.60;32.20;;;;;;5011305;28;21204;-69
2022/02/05 12:15:13;;;;;;;6.10;1.20;;;26.80;32.40;;;;;;5006683;28;20892;-69
2022/02/05 12:18:06;;;;;;;3.25;1.10;;;26.90;32.20;;;;;;5019766;28;20393;-70
2022/02/05 12:21:26;;;;;;;3.20;0.80;;;27.10;32.20;;;;;;5020321;28;20375;-74
2022/02/05 12:26:25;;;;;;;3.90;1.30;;;27.20;32.40;;;;;;5010853;28;20411;-73
2022/02/05 12:28:52;;;;;;;2.67;1.02;;;27.20;32.70;;;;;;5022324;28;20439;-76
2022/02/05 12:31:18;;;;;;;2.88;0.90;;;27.30;33.20;;;;;;5029725;28;20397;-70
2022/02/05 12:33:48;;;;;;;2.77;0.93;;;27.50;33.00;;;;;;5009448;28;20450;-76
2022/02/05 12:36:25;;;;;;;1.58;0.80;;;27.50;32.80;;;;;;5013317;28;20421;-75
2022/02/05 12:38:53;;;;;;;2.95;0.70;;;27.50;32.60;;;;;;5016437;28;20489;-78
2022/02/05 12:41:21;;;;;;;2.50;1.00;;;27.50;33.00;;;;;;5018661;28;20456;-71
2022/02/05 12:43:58;;;;;;;2.28;0.90;;;27.60;33.10;;;;;;5014584;28;20398;-74
2022/02/05 12:46:36;;;;;;;2.90;0.85;;;27.70;33.00;;;;;;5016026;28;20891;-70
2022/02/05 12:49:07;;;;;;;1.92;0.80;;;27.70;32.50;;;;;;5015862;28;20409;-72
2022/02/05 12:51:33;;;;;;;3.30;1.13;;;27.70;32.70;;;;;;5017132;28;20393;-77
2022/02/05 12:54:15;;;;;;;3.92;1.00;;;27.80;34.30;;;;;;5024526;28;20880;-78
2022/02/05 12:56:44;;;;;;;2.75;0.93;;;27.80;33.50;;;;;;5019429;28;20426;-75
2022/02/05 12:59:35;;;;;;;3.65;0.80;;;27.80;34.60;;;;;;5014525;28;20397;-78
2022/02/05 13:02:12;;;;;;;3.67;1.10;;;27.90;33.80;;;;;;5015494;28;20426;-69
2022/02/05 13:04:40;;;;;;;4.30;1.00;;;28.00;33.10;;;;;;5015261;28;20535;-71
2022/02/05 13:07:13;;;;;;;5.32;0.90;;;27.90;32.30;;;;;;5015521;28;20768;-71
2022/02/05 13:09:49;;;;;;;3.05;1.05;;;27.90;31.70;;;;;;5014764;28;20389;-69
2022/02/05 13:12:23;;;;;;;12.20;1.50;;;27.80;32.00;;;;;;5015088;28;20405;-72
2022/02/05 13:15:04;;;;;;;4.78;1.00;;;27.80;32.00;;;;;;5015094;28;20393;-70
2022/02/05 13:38:58;;;;;;;4.10;0.90;;;28.00;30.80;;;;;;5016307;28;20407;-69
2022/02/05 13:41:44;;;;;;;3.97;0.90;;;28.10;31.00;;;;;;5013530;28;20753;-70
2022/02/05 13:44:15;;;;;;;4.45;1.00;;;28.10;30.80;;;;;;5013341;28;20401;-70
2022/02/05 13:46:40;;;;;;;7.15;1.00;;;28.00;31.10;;;;;;5029608;28;20420;-70
2022/02/05 13:49:17;;;;;;;4.85;1.10;;;27.90;31.00;;;;;;5012137;28;20459;-71
2022/02/05 13:51:43;;;;;;;3.45;1.00;;;27.90;30.80;;;;;;5013450;28;20960;-69
2022/02/05 13:54:10;;;;;;;3.53;0.98;;;27.80;30.60;;;;;;5012710;28;20405;-70
2022/02/05 13:56:36;;;;;;;2.97;1.17;;;27.80;30.20;;;;;;5012178;28;20788;-69
2022/02/05 13:59:04;;;;;;;3.67;1.00;;;27.80;30.30;;;;;;5013459;28;20476;-69
2022/02/05 14:01:31;;;;;;;2.05;0.93;;;27.80;30.10;;;;;;5012467;28;20393;-70
2022/02/05 14:04:11;;;;;;;3.13;0.90;;;27.80;30.10;;;;;;5028603;28;21028;-73
2022/02/05 14:06:53;;;;;;;5.32;1.05;;;27.80;30.70;;;;;;5013015;28;20401;-69
2022/02/05 14:09:38;;;;;;;2.53;0.93;;;27.70;30.40;;;;;;5012321;28;20404;-69
2022/02/05 14:12:17;;;;;;;3.50;1.10;;;27.70;30.00;;;;;;5013732;28;20396;-72
2022/02/05 14:14:43;;;;;;;3.38;1.55;;;27.70;30.10;;;;;;5013293;28;20401;-68
2022/02/05 14:17:19;;;;;;;3.47;1.08;;;27.70;29.60;;;;;;5012800;28;20401;-69
2022/02/05 14:19:47;;;;;;;1.77;0.80;;;27.60;29.50;;;;;;5012443;28;20393;-69
2022/02/05 14:22:26;;;;;;;3.00;0.73;;;27.60;30.20;;;;;;5028743;28;20498;-70
2022/02/05 14:25:17;;;;;;;2.60;0.90;;;27.60;29.90;;;;;;5013529;28;20776;-71
2022/02/05 14:28:09;;;;;;;3.45;0.77;;;27.60;30.30;;;;;;5012389;28;20400;-70
2022/02/05 14:30:37;;;;;;;3.40;0.80;;;27.50;30.00;;;;;;5012820;28;20491;-71
2022/02/05 14:33:06;;;;;;;2.63;1.00;;;27.50;29.80;;;;;;5013244;28;20393;-70
2022/02/05 14:40:49;;;;;;;2.67;0.70;;;27.40;29.80;;;;;;5013730;28;20399;-72
2022/02/05 14:43:17;;;;;;;1.67;0.63;;;27.40;29.70;;;;;;5013172;28;20764;-69
2022/02/05 14:45:45;;;;;;;1.67;0.77;;;27.30;29.40;;;;;;5013379;28;20884;-70
2022/02/05 14:48:13;;;;;;;1.80;0.65;;;27.30;30.10;;;;;;5011899;28;20959;-70
2022/02/05 14:50:39;;;;;;;3.65;0.70;;;27.30;29.60;;;;;;5011997;28;20393;-69
2022/02/05 14:53:05;;;;;;;3.38;0.70;;;27.30;30.10;;;;;;5011436;28;20396;-69
2022/02/05 14:55:31;;;;;;;2.08;0.70;;;27.20;30.00;;;;;;5013275;28;20381;-70
2022/02/05 14:57:56;;;;;;;1.73;0.60;;;27.20;29.80;;;;;;5012538;28;20389;-69
2022/02/05 15:00:22;;;;;;;1.50;0.60;;;27.20;30.00;;;;;;5013222;28;20404;-70
2022/02/05 15:02:50;;;;;;;1.75;0.60;;;27.10;30.10;;;;;;5012472;28;20503;-72
2022/02/05 15:05:16;;;;;;;2.53;0.60;;;27.10;30.20;;;;;;5012949;28;20534;-69
2022/02/05 15:07:43;;;;;;;2.78;0.60;;;27.10;30.30;;;;;;5012911;28;20396;-68
2022/02/05 15:10:11;;;;;;;1.75;0.60;;;27.00;30.00;;;;;;5016682;28;20823;-72
2022/02/05 15:12:38;;;;;;;2.53;0.60;;;27.00;30.30;;;;;;5032490;28;20549;-76
2022/02/05 15:15:12;;;;;;;2.77;0.70;;;26.90;30.10;;;;;;5032179;28;20414;-75
2022/02/05 15:17:42;;;;;;;1.88;0.57;;;26.90;30.30;;;;;;5031546;28;20453;-69
2022/02/05 15:20:09;;;;;;;2.00;0.70;;;26.90;29.80;;;;;;5030323;28;20862;-75
2022/02/05 15:22:34;;;;;;;1.70;0.60;;;26.80;30.30;;;;;;5032091;28;20779;-70
2022/02/05 15:25:00;;;;;;;1.23;0.50;;;26.80;30.30;;;;;;5032616;28;20561;-76
2022/02/05 15:27:26;;;;;;;1.17;0.60;;;26.70;30.00;;;;;;5031309;28;20837;-73
2022/02/05 15:29:51;;;;;;;1.23;0.50;;;26.70;30.00;;;;;;5031841;28;20453;-69
2022/02/05 15:32:17;;;;;;;1.87;0.50;;;26.60;29.90;;;;;;5030397;28;20410;-69
2022/02/05 15:34:44;;;;;;;1.58;0.63;;;26.60;30.00;;;;;;5033671;28;20391;-69
2022/02/05 15:37:16;;;;;;;0.90;0.50;;;26.50;29.90;;;;;;5030931;28;20407;-70
2022/02/05 15:45:11;;;;;;;1.23;0.60;;;26.20;29.90;;;;;;5032995;28;20393;-71
2022/02/05 15:47:36;;;;;;;1.25;0.63;;;26.20;29.60;;;;;;5030241;28;20481;-69
2022/02/05 15:50:04;;;;;;;1.30;0.73;;;26.00;29.70;;;;;;5031636;28;20395;-69
2022/02/05 15:52:29;;;;;;;1.50;0.60;;;25.90;29.90;;;;;;5033164;28;20457;-69
2022/02/05 15:54:58;;;;;;;1.20;0.50;;;25.80;29.90;;;;;;5032737;28;20887;-69
2022/02/05 16:00:27;;;;;;;1.70;0.57;;;25.70;30.20;;;;;;5031515;28;20438;-69
2022/02/05 16:02:55;;;;;;;1.20;0.50;;;25.60;30.10;;;;;;5031720;28;20827;-70
2022/02/05 16:05:23;;;;;;;1.40;0.68;;;25.60;30.10;;;;;;5032212;28;20391;-69
2022/02/05 16:07:49;;;;;;;1.35;0.60;;;25.40;30.10;;;;;;5030176;28;20427;-70
2022/02/05 16:10:15;;;;;;;1.60;0.50;;;25.40;30.10;;;;;;5030221;28;20426;-69
2022/02/05 16:12:44;;;;;;;1.00;0.60;;;25.30;30.20;;;;;;5029511;28;20455;-71
2022/02/05 16:15:10;;;;;;;0.73;0.40;;;25.20;30.20;;;;;;5031781;28;20388;-70
2022/02/05 16:17:35;;;;;;;1.40;0.50;;;25.20;30.20;;;;;;5033392;28;20402;-70
2022/02/05 16:20:01;;;;;;;1.85;0.68;;;25.10;30.30;;;;;;5029997;28;20387;-77
2022/02/05 16:22:27;;;;;;;2.00;0.50;;;25.10;30.60;;;;;;5031574;28;20415;-72